Time;durP1;ratioP1;P1;durP2;ratioP2;P2;SDS_P1;SDS_P2;PMS_P1;PMS_P2;Temp;Humidity;BMP_temperature;BMP_pressure;BME280_temperature;BME280_humidity;BME280_pressure;Samples;Min_cycle;Max_cycle;Signal;HPM_P1;HPM_P2
2022/08/20 00:01:16;;;;;;;8.20;2.00;;;15.30;88.00;;;;;;5074256;28;20060;-73
2022/08/20 00:03:43;;;;;;;7.85;2.00;;;15.20;88.20;;;;;;5073797;28;20383;-73
2022/08/20 00:06:22;;;;;;;10.02;2.10;;;15.20;88.60;;;;;;5076507;28;20040;-73
2022/08/20 00:08:50;;;;;;;10.98;2.03;;;15.20;89.90;;;;;;5077318;28;20044;-73
2022/08/20 00:11:21;;;;;;;9.13;1.90;;;15.10;89.20;;;;;;5078329;28;20051;-73
2022/08/20 00:13:54;;;;;;;9.85;2.00;;;15.10;89.60;;;;;;5078534;28;20495;-73
2022/08/20 00:16:24;;;;;;;12.95;1.95;;;15.10;89.90;;;;;;5077197;28;20053;-73
2022/08/20 00:18:52;;;;;;;13.52;2.08;;;15.00;90.10;;;;;;5078419;28;20048;-73
2022/08/20 00:21:21;;;;;;;12.80;2.03;;;15.00;90.20;;;;;;5077016;28;20052;-73
2022/08/20 00:23:52;;;;;;;8.73;1.95;;;14.90;90.40;;;;;;5077859;28;20048;-73
2022/08/20 00:26:22;;;;;;;10.93;2.00;;;15.00;90.50;;;;;;5060258;28;20044;-73
2022/08/20 00:28:50;;;;;;;10.30;1.98;;;14.90;90.60;;;;;;5076462;28;20060;-73
2022/08/20 00:31:20;;;;;;;11.55;1.85;;;14.90;90.80;;;;;;5078133;28;20040;-73
2022/08/20 00:33:48;;;;;;;12.82;2.22;;;14.90;90.90;;;;;;5060352;28;20044;-74
2022/08/20 00:36:16;;;;;;;12.40;2.10;;;14.90;91.00;;;;;;5076587;28;20053;-73
2022/08/20 00:38:45;;;;;;;12.15;2.20;;;14.90;91.10;;;;;;5060773;28;20044;-73
2022/08/20 00:41:18;;;;;;;13.68;2.08;;;14.80;91.20;;;;;;5078177;28;20049;-73
2022/08/20 00:43:50;;;;;;;14.73;2.22;;;14.80;91.30;;;;;;5077645;28;20053;-73
2022/08/20 00:46:24;;;;;;;11.15;2.17;;;14.80;91.50;;;;;;5077685;28;20049;-73
2022/08/20 00:48:59;;;;;;;14.10;2.28;;;14.80;91.60;;;;;;5043199;28;20048;-73
2022/08/20 00:51:32;;;;;;;13.68;1.88;;;14.70;91.70;;;;;;5077412;28;20041;-74
2022/08/20 00:54:32;;;;;;;10.20;1.73;;;14.70;91.80;;;;;;5077850;28;20049;-73
2022/08/20 00:57:07;;;;;;;17.83;2.30;;;14.70;92.50;;;;;;5076161;28;20048;-73
2022/08/20 00:59:38;;;;;;;13.93;2.20;;;14.60;92.30;;;;;;5077208;28;20040;-73
2022/08/20 01:02:11;;;;;;;14.30;1.80;;;14.60;92.10;;;;;;5076061;28;20044;-73
2022/08/20 01:04:39;;;;;;;7.78;1.75;;;14.60;92.20;;;;;;5077485;28;20063;-73
2022/08/20 01:07:06;;;;;;;;;;;14.60;92.30;;;;;;5060337;28;20041;-73
2022/08/20 01:09:36;;;;;;;9.60;1.90;;;14.60;93.30;;;;;;5075887;28;19920;-73
2022/08/20 01:12:25;;;;;;;15.02;2.22;;;14.60;92.40;;;;;;5077602;28;20036;-73
2022/08/20 01:14:55;;;;;;;10.30;2.30;;;14.50;92.60;;;;;;5076366;28;20040;-73
2022/08/20 01:17:25;;;;;;;9.88;2.20;;;14.50;92.70;;;;;;5076290;28;20071;-73
2022/08/20 01:20:06;;;;;;;9.82;2.00;;;14.40;92.80;;;;;;5076909;28;20052;-73
2022/08/20 01:25:44;;;;;;;10.60;1.80;;;14.30;93.30;;;;;;5076708;28;20052;-73
2022/08/20 01:28:15;;;;;;;10.48;1.80;;;14.30;93.40;;;;;;5075752;28;20365;-74
2022/08/20 01:30:44;;;;;;;13.63;2.10;;;14.30;93.50;;;;;;5043037;28;20052;-73
2022/08/20 01:33:11;;;;;;;8.25;1.80;;;14.30;93.70;;;;;;5076650;28;20052;-73
2022/08/20 01:35:42;;;;;;;15.75;2.30;;;14.30;93.90;;;;;;5075837;28;20049;-73
2022/08/20 01:38:11;;;;;;;9.77;1.90;;;14.30;93.90;;;;;;5076659;28;20048;-73
2022/08/20 01:41:14;;;;;;;18.17;2.65;;;14.20;94.10;;;;;;5076447;28;20055;-73
2022/08/20 01:43:44;;;;;;;9.00;1.80;;;14.20;94.40;;;;;;5075332;28;20051;-73
2022/08/20 01:46:16;;;;;;;10.98;2.00;;;14.20;94.30;;;;;;5076652;28;20045;-73
2022/08/20 01:48:46;;;;;;;9.48;1.88;;;14.20;94.50;;;;;;5075632;28;20075;-73
2022/08/20 01:51:18;;;;;;;11.50;1.80;;;14.20;94.70;;;;;;5076224;28;20051;-73
2022/08/20 01:53:50;;;;;;;12.02;2.35;;;14.20;94.60;;;;;;5077033;28;20052;-73
2022/08/20 01:56:21;;;;;;;11.68;1.95;;;14.20;94.70;;;;;;5075437;28;20067;-73
2022/08/20 01:58:53;;;;;;;13.10;2.20;;;14.10;94.80;;;;;;5076683;28;20048;-73
2022/08/20 02:01:32;;;;;;;13.10;2.03;;;14.10;94.90;;;;;;5075275;28;20051;-73
2022/08/20 02:04:12;;;;;;;11.10;2.17;;;14.20;95.30;;;;;;5075945;28;20049;-73
2022/08/20 02:06:45;;;;;;;11.68;1.88;;;14.00;95.30;;;;;;5075925;28;20055;-73
2022/08/20 02:09:26;;;;;;;14.73;2.20;;;14.00;95.40;;;;;;5074768;28;20059;-73
2022/08/20 02:11:56;;;;;;;12.73;2.03;;;14.00;95.50;;;;;;5076177;28;20045;-73
2022/08/20 02:14:25;;;;;;;14.88;2.30;;;13.90;95.50;;;;;;5075910;28;20048;-73
2022/08/20 02:16:53;;;;;;;14.95;2.58;;;13.90;95.70;;;;;;5074684;28;20045;-74
2022/08/20 02:19:47;;;;;;;10.32;1.90;;;13.80;95.90;;;;;;5058231;28;20042;-73
2022/08/20 02:22:43;;;;;;;15.13;2.47;;;13.80;96.00;;;;;;5062065;28;20048;-73
2022/08/20 02:25:18;;;;;;;11.60;2.00;;;13.70;96.60;;;;;;5053811;28;20044;-73
2022/08/20 02:27:47;;;;;;;13.38;2.30;;;13.60;96.50;;;;;;5075439;28;20472;-73
2022/08/20 02:30:19;;;;;;;;;;;13.60;96.60;;;;;;5074661;28;20063;-73
2022/08/20 02:33:00;;;;;;;13.20;2.03;;;13.60;97.70;;;;;;5075707;28;19927;-74
2022/08/20 02:35:33;;;;;;;19.98;2.63;;;13.50;97.20;;;;;;5074274;28;20363;-73
2022/08/20 02:38:01;;;;;;;10.90;2.05;;;13.50;97.20;;;;;;5075691;28;20052;-73
2022/08/20 02:40:29;;;;;;;7.32;1.80;;;13.50;97.40;;;;;;5075561;28;20059;-73
2022/08/20 02:42:59;;;;;;;15.07;2.67;;;13.50;97.50;;;;;;5074430;28;20340;-73
2022/08/20 02:45:30;;;;;;;14.15;1.83;;;13.40;97.70;;;;;;5075388;28;20049;-73
2022/08/20 02:47:58;;;;;;;11.38;1.88;;;13.40;97.90;;;;;;5075094;28;20447;-73
2022/08/20 02:50:26;;;;;;;15.13;2.13;;;13.40;98.10;;;;;;5075186;28;20364;-73
2022/08/20 02:52:54;;;;;;;12.45;1.90;;;13.30;98.30;;;;;;5075335;28;20048;-73
2022/08/20 02:55:22;;;;;;;14.25;2.47;;;13.30;98.50;;;;;;5073964;28;20048;-73
2022/08/20 02:57:57;;;;;;;15.45;1.92;;;13.20;98.70;;;;;;5075259;28;20490;-74
2022/08/20 03:00:27;;;;;;;10.75;1.95;;;13.20;99.20;;;;;;5058107;28;20077;-73
2022/08/20 03:02:55;;;;;;;16.02;2.00;;;13.10;99.50;;;;;;5073809;28;20060;-73
2022/08/20 03:05:22;;;;;;;10.85;1.85;;;13.10;99.70;;;;;;5075182;28;20486;-74
2022/08/20 03:07:58;;;;;;;16.50;2.50;;;13.10;99.80;;;;;;5074806;28;20040;-73
2022/08/20 03:10:31;;;;;;;12.57;2.08;;;13.00;99.90;;;;;;5074946;28;20459;-73
2022/08/20 03:13:01;;;;;;;13.63;2.10;;;13.00;99.90;;;;;;5074802;28;20041;-73
2022/08/20 03:15:30;;;;;;;16.33;1.95;;;13.00;99.90;;;;;;5074461;28;20048;-73
2022/08/20 03:17:58;;;;;;;14.23;2.20;;;12.90;99.90;;;;;;5074676;28;20041;-73
2022/08/20 03:20:26;;;;;;;12.02;2.05;;;12.90;99.90;;;;;;5074690;28;20371;-73
2022/08/20 03:22:54;;;;;;;10.30;2.17;;;12.90;99.90;;;;;;5055986;28;20048;-73
2022/08/20 03:25:23;;;;;;;18.30;2.40;;;12.90;99.90;;;;;;5074634;28;20048;-73
2022/08/20 03:27:53;;;;;;;14.07;2.30;;;12.90;99.90;;;;;;5075079;28;20048;-73
2022/08/20 03:30:23;;;;;;;14.52;2.42;;;13.00;99.90;;;;;;5073584;28;20040;-73
2022/08/20 03:32:51;;;;;;;18.73;2.88;;;13.00;99.90;;;;;;5074855;28;20055;-73
2022/08/20 03:35:19;;;;;;;;;;;12.90;99.90;;;;;;5073886;28;20402;-73
2022/08/20 03:37:47;;;;;;;16.23;2.13;;;12.90;99.90;;;;;;5073617;28;19920;-73
2022/08/20 03:40:21;;;;;;;17.63;2.25;;;12.80;99.90;;;;;;5074405;28;20053;-73
2022/08/20 03:42:51;;;;;;;15.93;2.53;;;12.80;99.90;;;;;;5073618;28;20053;-73
2022/08/20 03:45:22;;;;;;;13.45;2.08;;;12.70;99.90;;;;;;5074422;28;20048;-73
2022/08/20 03:47:54;;;;;;;18.60;2.35;;;12.70;99.90;;;;;;5074497;28;20044;-74
2022/08/20 03:50:27;;;;;;;10.35;2.38;;;12.70;99.90;;;;;;5073631;28;20048;-73
2022/08/20 03:52:56;;;;;;;15.20;2.53;;;12.70;99.90;;;;;;5056881;28;20040;-73
2022/08/20 03:55:26;;;;;;;13.90;2.30;;;12.70;99.90;;;;;;5073411;28;20037;-73
2022/08/20 03:57:57;;;;;;;12.60;2.30;;;12.60;99.90;;;;;;5074629;28;20475;-73
2022/08/20 04:00:31;;;;;;;17.88;2.75;;;12.60;99.90;;;;;;5074624;28;20049;-73
2022/08/20 04:02:59;;;;;;;12.98;2.30;;;12.60;99.90;;;;;;5073295;28;20048;-73
2022/08/20 04:05:29;;;;;;;18.40;2.70;;;12.50;99.90;;;;;;5074468;28;20048;-73
2022/08/20 04:07:59;;;;;;;15.35;2.50;;;12.50;99.90;;;;;;5074540;28;20040;-73
2022/08/20 04:10:30;;;;;;;15.07;2.33;;;12.40;99.90;;;;;;5074363;28;20060;-73
2022/08/20 04:12:59;;;;;;;17.10;2.33;;;12.40;99.90;;;;;;5056867;28;20044;-73
2022/08/20 04:15:28;;;;;;;18.13;2.50;;;12.40;99.90;;;;;;5073677;28;20074;-73
2022/08/20 04:17:58;;;;;;;14.35;2.53;;;12.40;99.90;;;;;;5074919;28;20049;-73
2022/08/20 04:20:26;;;;;;;16.05;2.42;;;12.40;99.90;;;;;;5074382;28;20049;-73
2022/08/20 04:22:56;;;;;;;15.63;2.05;;;12.30;99.90;;;;;;5073211;28;20051;-73
2022/08/20 04:25:30;;;;;;;18.08;2.38;;;12.20;99.90;;;;;;5074047;28;20045;-73
2022/08/20 04:28:05;;;;;;;9.57;2.15;;;12.30;99.90;;;;;;5072856;28;20494;-73
2022/08/20 04:30:33;;;;;;;14.13;2.20;;;12.30;99.90;;;;;;5054306;28;20095;-73
2022/08/20 04:33:01;;;;;;;11.75;2.20;;;12.30;99.90;;;;;;5054037;28;20049;-73
2022/08/20 04:35:30;;;;;;;13.93;2.47;;;12.30;99.90;;;;;;5052856;28;20353;-73
2022/08/20 04:38:03;;;;;;;14.45;2.65;;;12.30;99.90;;;;;;5053808;28;20049;-73
2022/08/20 04:43:19;;;;;;;;;;;12.20;99.90;;;;;;5053363;28;20045;-73
2022/08/20 04:45:47;;;;;;;16.83;2.47;;;12.20;99.90;;;;;;5053045;28;19950;-73
2022/08/20 04:48:15;;;;;;;14.80;2.45;;;12.10;99.90;;;;;;5052647;28;20045;-73
2022/08/20 04:50:45;;;;;;;14.75;2.58;;;12.10;99.90;;;;;;5036423;28;20486;-73
2022/08/20 04:53:16;;;;;;;14.85;2.17;;;12.10;99.90;;;;;;5055903;28;20059;-73
2022/08/20 04:55:51;;;;;;;12.75;2.30;;;12.00;99.90;;;;;;5039915;28;20372;-73
2022/08/20 04:58:29;;;;;;;13.80;2.55;;;12.00;99.90;;;;;;5040087;28;20372;-73
2022/08/20 05:01:00;;;;;;;14.35;2.40;;;12.00;99.90;;;;;;5057248;28;20487;-74
2022/08/20 05:03:28;;;;;;;16.98;2.40;;;12.00;99.90;;;;;;5056160;28;20056;-73
2022/08/20 05:05:57;;;;;;;11.05;2.20;;;12.00;99.90;;;;;;5057257;28;20364;-73
2022/08/20 05:08:25;;;;;;;12.02;2.28;;;12.00;99.90;;;;;;5055953;28;20056;-73
2022/08/20 05:10:54;;;;;;;8.63;2.00;;;12.10;99.90;;;;;;5057192;28;20045;-73
2022/08/20 05:13:41;;;;;;;9.95;2.30;;;12.10;99.90;;;;;;5057139;28;20033;-73
2022/08/20 05:16:09;;;;;;;15.23;2.25;;;12.10;99.90;;;;;;5056188;28;20060;-73
2022/08/20 05:18:37;;;;;;;16.95;2.58;;;12.30;99.90;;;;;;5056957;28;20053;-73
2022/08/20 05:21:04;;;;;;;16.15;2.50;;;12.20;99.90;;;;;;5057092;28;20379;-73
2022/08/20 05:23:36;;;;;;;12.02;2.38;;;12.30;99.90;;;;;;5055963;28;20337;-73
2022/08/20 05:26:06;;;;;;;15.75;2.20;;;12.30;99.90;;;;;;5056886;28;20360;-73
2022/08/20 05:28:37;;;;;;;12.77;2.47;;;12.30;99.90;;;;;;5059431;28;20371;-73
2022/08/20 05:31:28;;;;;;;16.73;2.40;;;12.30;99.90;;;;;;5076885;28;20367;-73
2022/08/20 05:34:08;;;;;;;11.07;2.22;;;12.30;99.90;;;;;;5077007;28;20467;-73
2022/08/20 05:36:40;;;;;;;11.48;2.17;;;12.30;99.90;;;;;;5075553;28;20490;-74
2022/08/20 05:39:09;;;;;;;14.45;2.40;;;12.30;99.90;;;;;;5077194;28;20045;-73
2022/08/20 05:41:38;;;;;;;13.82;2.20;;;12.30;99.90;;;;;;5075503;28;20071;-73
2022/08/20 05:44:09;;;;;;;13.18;2.10;;;12.40;99.90;;;;;;5076389;28;20060;-73
2022/08/20 05:46:41;;;;;;;11.80;2.65;;;12.40;99.90;;;;;;5076561;28;20044;-73
2022/08/20 05:49:18;;;;;;;13.27;2.10;;;12.40;99.90;;;;;;5075553;28;20107;-73
2022/08/20 05:51:47;;;;;;;15.32;2.85;;;12.50;99.90;;;;;;5076872;28;20371;-73
2022/08/20 05:54:15;;;;;;;13.30;2.10;;;12.60;99.90;;;;;;5076511;28;20044;-74
2022/08/20 05:56:42;;;;;;;15.32;2.92;;;12.60;99.90;;;;;;5075112;28;20375;-73
2022/08/20 05:59:12;;;;;;;13.85;2.58;;;12.60;99.90;;;;;;5076114;28;20041;-73
2022/08/20 06:01:41;;;;;;;16.73;2.53;;;12.70;99.90;;;;;;5057373;28;20438;-74
2022/08/20 06:04:26;;;;;;;18.48;2.75;;;12.70;99.90;;;;;;5075045;28;20485;-74
2022/08/20 06:07:06;;;;;;;18.60;2.53;;;12.70;99.90;;;;;;5076259;28;20049;-74
2022/08/20 06:09:35;;;;;;;19.55;2.40;;;12.80;99.90;;;;;;5057281;28;20040;-74
2022/08/20 06:12:05;;;;;;;10.23;2.20;;;12.40;99.90;;;;;;5075907;28;20045;-75
2022/08/20 06:14:33;;;;;;;18.30;2.53;;;12.90;99.90;;;;;;5076430;28;20041;-72
2022/08/20 06:17:03;;;;;;;13.77;2.47;;;13.00;99.90;;;;;;5074829;28;20051;-74
2022/08/20 06:19:32;;;;;;;16.90;2.75;;;13.10;99.90;;;;;;5042061;28;20063;-73
2022/08/20 06:22:01;;;;;;;16.52;2.47;;;13.20;99.90;;;;;;5074608;28;20049;-74
2022/08/20 06:24:44;;;;;;;16.33;2.55;;;13.30;99.90;;;;;;5076152;28;20363;-74
2022/08/20 06:27:14;;;;;;;14.15;2.40;;;13.20;99.90;;;;;;5075942;28;20052;-72
2022/08/20 06:29:42;;;;;;;23.50;2.83;;;13.50;99.90;;;;;;5074416;28;20048;-74
2022/08/20 06:32:10;;;;;;;15.02;2.50;;;13.70;99.90;;;;;;5075856;28;20041;-73
2022/08/20 06:34:37;;;;;;;21.90;2.97;;;13.80;99.90;;;;;;5075382;28;20044;-72
2022/08/20 06:37:26;;;;;;;17.92;2.80;;;13.90;99.90;;;;;;5075586;28;20439;-72
2022/08/20 06:40:15;;;;;;;20.65;2.90;;;14.00;99.90;;;;;;5075578;28;20044;-74
2022/08/20 06:42:44;;;;;;;14.10;2.58;;;14.10;99.90;;;;;;5074412;28;20044;-74
2022/08/20 06:45:19;;;;;;;14.63;2.70;;;14.30;99.90;;;;;;5075157;28;20048;-74
2022/08/20 06:47:47;;;;;;;19.75;2.90;;;14.40;99.90;;;;;;5075490;28;20052;-74
2022/08/20 06:50:19;;;;;;;22.23;2.83;;;14.40;99.90;;;;;;5074233;28;20044;-74
2022/08/20 06:52:46;;;;;;;20.35;3.10;;;14.60;99.90;;;;;;5075297;28;20044;-72
2022/08/20 06:55:20;;;;;;;16.00;2.35;;;14.60;99.90;;;;;;5056538;28;20451;-74
2022/08/20 06:58:00;;;;;;;16.98;2.45;;;14.80;99.90;;;;;;5057653;28;20059;-74
2022/08/20 07:00:35;;;;;;;14.02;2.40;;;14.90;99.90;;;;;;5075197;28;20048;-74
2022/08/20 07:03:03;;;;;;;17.13;2.83;;;15.00;99.90;;;;;;5074097;28;20052;-74
2022/08/20 07:05:40;;;;;;;19.95;2.95;;;15.50;99.90;;;;;;5075081;28;20040;-74
2022/08/20 07:08:15;;;;;;;18.17;2.83;;;15.30;99.90;;;;;;5073776;28;20053;-73
2022/08/20 07:10:43;;;;;;;14.55;2.72;;;15.50;99.90;;;;;;5075087;28;20616;-73
2022/08/20 07:13:13;;;;;;;16.15;2.55;;;15.50;99.90;;;;;;5074806;28;20475;-73
2022/08/20 07:15:43;;;;;;;19.75;3.10;;;15.60;99.90;;;;;;5055719;28;20052;-73
2022/08/20 07:18:12;;;;;;;17.45;3.08;;;15.70;99.90;;;;;;5074731;28;20463;-73
2022/08/20 07:20:41;;;;;;;18.33;2.53;;;15.80;99.90;;;;;;5057306;28;20055;-73
2022/08/20 07:23:10;;;;;;;16.45;3.05;;;15.90;99.90;;;;;;5073618;28;20041;-71
2022/08/20 07:25:40;;;;;;;21.52;2.65;;;15.90;99.90;;;;;;5057534;28;20060;-73
2022/08/20 07:28:13;;;;;;;22.83;2.92;;;15.90;99.90;;;;;;5056271;28;20037;-73
2022/08/20 07:33:40;;;;;;;14.70;2.80;;;16.00;99.90;;;;;;5056955;28;20051;-72
2022/08/20 07:36:09;;;;;;;;;;;16.10;99.90;;;;;;5073811;28;20048;-73
2022/08/20 07:38:37;;;;;;;12.75;2.47;;;16.20;99.90;;;;;;5074337;28;20255;-73
2022/08/20 07:41:08;;;;;;;15.65;2.38;;;15.90;99.90;;;;;;5074275;28;20115;-73
2022/08/20 07:43:38;;;;;;;17.20;2.95;;;16.20;99.90;;;;;;5073137;28;20051;-73
2022/08/20 07:46:07;;;;;;;16.25;2.10;;;16.30;99.90;;;;;;5074112;28;20056;-73
2022/08/20 07:48:40;;;;;;;14.50;2.60;;;16.30;99.90;;;;;;5073048;28;20044;-73
2022/08/20 07:51:09;;;;;;;18.27;2.75;;;16.40;99.90;;;;;;5074342;28;20045;-73
2022/08/20 07:53:39;;;;;;;17.77;2.78;;;16.40;99.90;;;;;;5074229;28;20055;-74
2022/08/20 07:56:11;;;;;;;15.15;2.53;;;16.50;99.90;;;;;;5055626;28;20040;-73
2022/08/20 07:58:46;;;;;;;14.98;2.25;;;16.60;99.90;;;;;;5073929;28;20044;-74
2022/08/20 08:01:14;;;;;;;15.63;2.70;;;16.70;99.90;;;;;;5074236;28;20059;-74
2022/08/20 08:03:42;;;;;;;16.15;2.42;;;16.80;99.90;;;;;;5072968;28;20045;-72
2022/08/20 08:06:22;;;;;;;21.50;2.63;;;16.80;99.90;;;;;;5074057;28;20044;-74
2022/08/20 08:09:06;;;;;;;13.65;2.50;;;16.90;99.90;;;;;;5072854;28;20044;-74
2022/08/20 08:11:37;;;;;;;13.20;2.72;;;17.00;99.80;;;;;;5056665;28;20482;-74
2022/08/20 08:14:08;;;;;;;13.82;2.35;;;17.10;99.50;;;;;;5056201;28;20045;-72
2022/08/20 08:16:36;;;;;;;12.88;2.58;;;17.20;99.10;;;;;;5072934;28;20048;-72
2022/08/20 08:19:05;;;;;;;;;;;17.30;98.80;;;;;;5074318;28;20048;-73
2022/08/20 08:21:33;;;;;;;13.32;2.17;;;17.30;96.80;;;;;;5073092;28;19931;-73
2022/08/20 08:24:01;;;;;;;16.40;2.35;;;17.50;97.40;;;;;;5074354;28;20055;-74
2022/08/20 08:26:29;;;;;;;14.57;2.05;;;17.50;97.00;;;;;;5074749;28;20072;-73
2022/08/20 08:28:59;;;;;;;16.73;2.53;;;17.60;96.00;;;;;;5076632;28;20055;-74
2022/08/20 08:31:27;;;;;;;12.75;2.30;;;17.70;95.90;;;;;;5078015;28;20063;-74
2022/08/20 08:33:55;;;;;;;14.90;2.17;;;17.80;95.40;;;;;;5077771;28;20044;-73
2022/08/20 08:36:25;;;;;;;11.85;1.75;;;17.90;94.90;;;;;;5076845;28;20044;-73
2022/08/20 08:38:53;;;;;;;11.55;1.88;;;17.90;94.60;;;;;;5077800;28;20522;-73
2022/08/20 08:41:32;;;;;;;;;;;18.10;94.00;;;;;;5077161;28;20041;-73
2022/08/20 08:44:06;;;;;;;10.20;1.95;;;18.10;92.10;;;;;;5077570;28;20271;-74
2022/08/20 08:46:41;;;;;;;10.52;2.17;;;18.30;92.70;;;;;;5077580;28;20040;-73
2022/08/20 08:49:17;;;;;;;15.23;2.17;;;18.40;91.50;;;;;;5076560;28;20052;-74
2022/08/20 08:51:51;;;;;;;7.10;1.70;;;18.40;91.50;;;;;;5077679;28;20367;-75
2022/08/20 08:54:23;;;;;;;9.13;1.83;;;18.60;90.90;;;;;;5077605;28;20045;-75
2022/08/20 08:56:52;;;;;;;9.48;1.70;;;18.60;90.60;;;;;;5058747;28;20040;-75
2022/08/20 08:59:21;;;;;;;9.98;1.45;;;18.70;90.50;;;;;;5077777;28;20053;-75
2022/08/20 09:01:53;;;;;;;8.70;1.90;;;18.80;90.30;;;;;;5076441;28;20059;-75
2022/08/20 09:04:31;;;;;;;9.57;2.13;;;18.90;88.50;;;;;;5077416;28;20052;-75
2022/08/20 09:07:01;;;;;;;7.55;1.90;;;19.00;87.50;;;;;;5077395;28;20458;-77
2022/08/20 09:09:36;;;;;;;10.35;1.73;;;19.10;87.10;;;;;;5076233;28;20099;-77
2022/08/20 09:12:11;;;;;;;9.57;1.67;;;19.20;87.40;;;;;;5075339;28;20044;-77
2022/08/20 09:14:39;;;;;;;7.38;1.77;;;19.30;87.50;;;;;;5056159;28;20059;-76
2022/08/20 09:17:07;;;;;;;7.88;1.88;;;19.40;87.90;;;;;;5057539;28;20045;-76
2022/08/20 09:19:35;;;;;;;8.60;1.90;;;19.60;87.30;;;;;;5039860;28;20049;-76
2022/08/20 09:22:11;;;;;;;9.02;1.70;;;19.90;87.20;;;;;;5038100;28;20055;-75
2022/08/20 09:24:39;;;;;;;8.82;1.65;;;20.00;86.50;;;;;;5039620;28;20037;-76
2022/08/20 09:27:11;;;;;;;10.25;1.83;;;20.10;85.10;;;;;;5039620;28;20383;-77
2022/08/20 09:29:40;;;;;;;8.75;1.50;;;20.30;84.70;;;;;;5067840;28;20053;-76
2022/08/20 09:32:12;;;;;;;12.35;1.88;;;20.10;82.40;;;;;;5077326;28;20053;-76
2022/08/20 09:34:46;;;;;;;8.32;1.60;;;20.20;83.30;;;;;;5058323;28;20040;-77
2022/08/20 09:37:14;;;;;;;6.20;1.50;;;20.00;82.80;;;;;;5059227;28;20040;-75
2022/08/20 09:39:42;;;;;;;7.00;1.58;;;20.10;83.00;;;;;;5075932;28;20044;-76
2022/08/20 09:42:16;;;;;;;12.00;1.70;;;20.10;83.00;;;;;;5075431;28;20037;-76
2022/08/20 09:44:44;;;;;;;9.52;1.60;;;20.30;82.60;;;;;;5076825;28;20052;-76
2022/08/20 09:47:12;;;;;;;7.40;1.65;;;20.50;80.90;;;;;;5042317;28;20403;-77
2022/08/20 09:49:39;;;;;;;11.77;1.70;;;20.60;80.80;;;;;;5075227;28;20053;-76
2022/08/20 09:52:10;;;;;;;9.40;1.50;;;20.70;80.50;;;;;;5076493;28;20348;-76
2022/08/20 09:54:39;;;;;;;7.10;1.63;;;20.80;79.80;;;;;;5059262;28;20048;-77
2022/08/20 09:57:15;;;;;;;9.05;1.60;;;20.90;79.20;;;;;;5059120;28;20048;-77
2022/08/20 09:59:47;;;;;;;8.57;1.40;;;20.90;79.80;;;;;;5075957;28;20067;-77
2022/08/20 10:02:14;;;;;;;9.40;1.63;;;20.90;79.30;;;;;;5075174;28;20056;-78
2022/08/20 10:04:42;;;;;;;6.93;1.38;;;20.90;79.10;;;;;;5058674;28;20060;-76
2022/08/20 10:07:09;;;;;;;6.47;1.58;;;21.00;78.40;;;;;;5076120;28;20044;-77
2022/08/20 10:09:37;;;;;;;7.07;1.55;;;21.10;78.30;;;;;;5075351;28;20474;-77
2022/08/20 10:12:06;;;;;;;10.77;1.90;;;21.10;79.00;;;;;;5025533;28;20056;-77
2022/08/20 10:14:36;;;;;;;10.45;2.17;;;21.20;78.90;;;;;;5076088;28;20048;-77
2022/08/20 10:17:04;;;;;;;8.00;1.58;;;21.30;78.80;;;;;;5057422;28;20430;-76
2022/08/20 10:19:32;;;;;;;7.43;1.20;;;21.40;77.60;;;;;;5075735;28;20041;-77
2022/08/20 10:22:00;;;;;;;7.20;1.65;;;21.60;77.00;;;;;;5074760;28;20067;-78
2022/08/20 10:24:29;;;;;;;6.35;1.55;;;21.70;77.60;;;;;;5075882;28;20158;-78
2022/08/20 10:26:58;;;;;;;9.07;1.60;;;22.10;76.20;;;;;;5075504;28;20044;-77
2022/08/20 10:29:27;;;;;;;7.03;1.67;;;22.50;75.90;;;;;;5074151;28;20049;-75
2022/08/20 10:31:58;;;;;;;8.05;1.60;;;22.70;75.20;;;;;;5075630;28;20383;-73
2022/08/20 10:34:25;;;;;;;10.90;1.70;;;22.90;74.90;;;;;;5075633;28;20052;-74
2022/08/20 10:36:53;;;;;;;10.65;2.10;;;23.00;74.60;;;;;;5056797;28;20059;-73
2022/08/20 10:39:26;;;;;;;8.88;2.00;;;23.10;74.60;;;;;;5058471;28;20051;-77
2022/08/20 10:42:00;;;;;;;10.68;2.53;;;24.80;75.00;;;;;;5058124;28;20057;-73
2022/08/20 10:44:28;;;;;;;12.82;2.83;;;23.20;74.80;;;;;;5057220;28;20063;-73
2022/08/20 10:46:56;;;;;;;7.50;2.28;;;23.30;74.00;;;;;;5075394;28;20162;-73
2022/08/20 10:49:23;;;;;;;7.10;2.00;;;23.50;73.60;;;;;;5056758;28;20447;-75
2022/08/20 10:51:51;;;;;;;6.05;1.75;;;23.50;72.90;;;;;;5075616;28;20466;-73
2022/08/20 10:54:19;;;;;;;8.02;1.90;;;23.60;72.80;;;;;;5075077;28;20048;-75
2022/08/20 10:56:46;;;;;;;7.57;2.00;;;23.70;72.50;;;;;;5074071;28;20048;-73
2022/08/20 10:59:14;;;;;;;10.10;2.13;;;23.70;72.60;;;;;;5075162;28;20048;-73
2022/08/20 11:01:41;;;;;;;8.98;1.92;;;23.80;72.80;;;;;;5056483;28;20059;-74
2022/08/20 11:04:09;;;;;;;10.93;2.20;;;23.80;72.30;;;;;;5057493;28;20052;-74
2022/08/20 11:06:36;;;;;;;10.30;2.30;;;24.00;72.40;;;;;;5058026;28;20048;-75
2022/08/20 11:09:04;;;;;;;5.45;1.75;;;24.00;72.20;;;;;;5073804;28;20062;-76
2022/08/20 11:11:36;;;;;;;6.13;1.70;;;24.30;71.70;;;;;;5074825;28;20044;-76
2022/08/20 11:14:03;;;;;;;9.45;2.10;;;24.50;71.10;;;;;;5057401;28;20369;-76
2022/08/20 11:16:34;;;;;;;9.13;2.22;;;24.70;71.70;;;;;;5039754;28;20040;-76
2022/08/20 11:19:10;;;;;;;8.70;2.08;;;24.90;72.00;;;;;;5059025;28;20048;-75
2022/08/20 11:21:37;;;;;;;8.00;2.25;;;24.90;69.50;;;;;;5073928;28;20059;-76
2022/08/20 11:24:05;;;;;;;8.93;2.15;;;24.80;68.80;;;;;;5074883;28;20067;-76
2022/08/20 11:26:33;;;;;;;8.43;2.20;;;24.80;68.60;;;;;;5057413;28;20045;-73
2022/08/20 11:29:03;;;;;;;9.15;2.03;;;23.80;68.70;;;;;;5073663;28;20048;-76
2022/08/20 11:31:33;;;;;;;9.10;2.22;;;24.40;69.20;;;;;;5057522;28;20483;-75
2022/08/20 11:34:01;;;;;;;7.53;1.95;;;24.30;70.20;;;;;;5056964;28;20040;-74
2022/08/20 11:36:29;;;;;;;5.53;1.70;;;24.10;70.00;;;;;;5073438;28;20126;-74
2022/08/20 11:38:56;;;;;;;8.23;1.88;;;24.00;70.20;;;;;;5074472;28;20044;-73
2022/08/20 11:41:24;;;;;;;7.25;2.40;;;24.00;70.10;;;;;;5056377;28;20475;-74
2022/08/20 11:43:52;;;;;;;8.38;2.33;;;24.10;70.30;;;;;;5074554;28;20044;-75
2022/08/20 11:46:39;;;;;;;12.88;2.33;;;24.30;69.90;;;;;;5074450;28;20052;-75
2022/08/20 11:49:07;;;;;;;8.23;2.10;;;24.30;69.40;;;;;;5073369;28;20048;-77
2022/08/20 11:51:36;;;;;;;9.07;1.80;;;24.30;68.80;;;;;;5074552;28;20052;-77
2022/08/20 11:54:17;;;;;;;8.38;2.25;;;23.90;69.20;;;;;;5074343;28;20466;-74
2022/08/20 11:56:44;;;;;;;;;;;24.20;69.70;;;;;;5073838;28;20355;-74
2022/08/20 11:59:12;;;;;;;;;;;24.30;68.30;;;;;;5057687;28;19920;-76
2022/08/20 12:01:40;;;;;;;;;;;24.40;68.60;;;;;;5074512;28;20190;-75
2022/08/20 12:04:19;;;;;;;9.73;1.73;;;24.70;67.20;;;;;;5078441;28;19943;-75
2022/08/20 12:06:48;;;;;;;9.18;2.30;;;25.00;68.40;;;;;;5060658;28;20052;-75
2022/08/20 12:09:17;;;;;;;7.20;2.05;;;25.20;67.70;;;;;;5042998;28;20352;-74
2022/08/20 12:11:51;;;;;;;8.57;2.20;;;25.40;67.20;;;;;;5078278;28;20045;-73
2022/08/20 12:14:18;;;;;;;11.13;2.05;;;25.60;67.10;;;;;;5078387;28;20052;-78
2022/08/20 12:16:46;;;;;;;7.90;2.22;;;25.70;66.50;;;;;;5043111;28;20036;-75
2022/08/20 12:19:13;;;;;;;6.65;2.00;;;25.70;65.60;;;;;;5078135;28;20055;-77
2022/08/20 12:21:41;;;;;;;6.32;1.67;;;25.80;65.00;;;;;;5060025;28;20352;-76
2022/08/20 12:24:08;;;;;;;7.85;1.90;;;25.70;64.80;;;;;;5060605;28;20056;-76
2022/08/20 12:26:36;;;;;;;9.38;2.30;;;25.60;64.90;;;;;;5077822;28;20048;-78
2022/08/20 12:29:03;;;;;;;6.28;1.85;;;25.50;65.60;;;;;;5076718;28;20048;-78
2022/08/20 12:31:31;;;;;;;6.65;2.00;;;25.50;65.40;;;;;;5078223;28;20044;-76
2022/08/20 12:33:59;;;;;;;6.45;1.50;;;25.50;65.30;;;;;;5078262;28;20040;-73
2022/08/20 12:36:26;;;;;;;8.85;1.80;;;25.50;65.00;;;;;;5076780;28;20370;-73
2022/08/20 12:38:54;;;;;;;7.38;2.30;;;24.90;64.80;;;;;;5077995;28;20044;-74
2022/08/20 12:41:21;;;;;;;8.50;2.00;;;25.30;65.00;;;;;;5059172;28;20052;-72
2022/08/20 12:43:49;;;;;;;6.53;1.98;;;25.30;65.00;;;;;;5060501;28;20052;-73
2022/08/20 12:46:17;;;;;;;5.93;1.70;;;25.40;64.90;;;;;;5078217;28;20375;-73
2022/08/20 12:48:45;;;;;;;7.00;1.85;;;25.50;64.80;;;;;;5076913;28;20475;-77
2022/08/20 12:51:12;;;;;;;8.38;1.75;;;25.60;64.20;;;;;;5074075;28;20052;-76
2022/08/20 12:53:40;;;;;;;5.75;1.80;;;25.60;64.30;;;;;;5075894;28;20056;-74
2022/08/20 12:56:08;;;;;;;8.02;1.90;;;25.60;64.10;;;;;;5068426;28;20044;-74
2022/08/20 12:58:35;;;;;;;8.55;1.70;;;25.80;64.30;;;;;;5077532;28;20060;-81
2022/08/20 13:01:03;;;;;;;5.90;1.58;;;25.70;64.30;;;;;;5059400;28;20067;-77
2022/08/20 13:03:30;;;;;;;8.95;1.73;;;25.60;64.00;;;;;;5076343;28;20040;-76
2022/08/20 13:06:00;;;;;;;9.00;1.50;;;25.50;64.60;;;;;;5077465;28;20059;-79
2022/08/20 13:08:28;;;;;;;7.07;1.70;;;25.50;65.00;;;;;;5058446;28;20049;-78
2022/08/20 13:10:59;;;;;;;7.45;1.95;;;25.60;64.60;;;;;;5059811;28;20048;-82